sensor_id;sensor_type;location;lat;lon;timestamp;P1;P2;P0
47741;PMS5003;33504;52.066;6.096;2023-05-07T00:01:33;26;25;
47741;PMS5003;33504;52.066;6.096;2023-05-07T00:04:00;26;25;
47741;PMS5003;33504;52.066;6.096;2023-05-07T00:06:27;26;26;
47741;PMS5003;33504;52.066;6.096;2023-05-07T00:08:55;28;28;
47741;PMS5003;33504;52.066;6.096;2023-05-07T00:11:23;30;30;
47741;PMS5003;33504;52.066;6.096;2023-05-07T00:13:50;26;25;
47741;PMS5003;33504;52.066;6.096;2023-05-07T00:16:17;25;24;
47741;PMS5003;33504;52.066;6.096;2023-05-07T00:18:43;28;28;
47741;PMS5003;33504;52.066;6.096;2023-05-07T00:21:11;27;27;
47741;PMS5003;33504;52.066;6.096;2023-05-07T00:23:38;28;28;
47741;PMS5003;33504;52.066;6.096;2023-05-07T00:26:05;28;25;
47741;PMS5003;33504;52.066;6.096;2023-05-07T00:28:32;27;27;
47741;PMS5003;33504;52.066;6.096;2023-05-07T00:30:59;29;29;
47741;PMS5003;33504;52.066;6.096;2023-05-07T00:33:26;27;27;
47741;PMS5003;33504;52.066;6.096;2023-05-07T00:35:53;30;30;
47741;PMS5003;33504;52.066;6.096;2023-05-07T00:38:21;25;25;
47741;PMS5003;33504;52.066;6.096;2023-05-07T00:40:48;26;26;
47741;PMS5003;33504;52.066;6.096;2023-05-07T00:43:15;28;27;
47741;PMS5003;33504;52.066;6.096;2023-05-07T00:45:43;29;28;
47741;PMS5003;33504;52.066;6.096;2023-05-07T00:48:10;27;27;
47741;PMS5003;33504;52.066;6.096;2023-05-07T00:50:37;28;28;
47741;PMS5003;33504;52.066;6.096;2023-05-07T00:53:04;28;27;
47741;PMS5003;33504;52.066;6.096;2023-05-07T00:55:32;30;29;
47741;PMS5003;33504;52.066;6.096;2023-05-07T00:57:59;27;25;
47741;PMS5003;33504;52.066;6.096;2023-05-07T01:00:26;30;29;
47741;PMS5003;33504;52.066;6.096;2023-05-07T01:02:53;32;32;
47741;PMS5003;33504;52.066;6.096;2023-05-07T01:05:20;25;25;
47741;PMS5003;33504;52.066;6.096;2023-05-07T01:07:49;29;28;
47741;PMS5003;33504;52.066;6.096;2023-05-07T01:10:19;28;28;
47741;PMS5003;33504;52.066;6.096;2023-05-07T01:12:47;27;27;
47741;PMS5003;33504;52.066;6.096;2023-05-07T01:15:16;26;26;
47741;PMS5003;33504;52.066;6.096;2023-05-07T01:17:44;22;21;
47741;PMS5003;33504;52.066;6.096;2023-05-07T01:20:11;26;25;
47741;PMS5003;33504;52.066;6.096;2023-05-07T01:22:38;27;26;
47741;PMS5003;33504;52.066;6.096;2023-05-07T01:25:07;27;26;
47741;PMS5003;33504;52.066;6.096;2023-05-07T01:27:34;26;25;
47741;PMS5003;33504;52.066;6.096;2023-05-07T01:30:01;26;26;
47741;PMS5003;33504;52.066;6.096;2023-05-07T01:32:31;27;27;
47741;PMS5003;33504;52.066;6.096;2023-05-07T01:35:02;28;27;
47741;PMS5003;33504;52.066;6.096;2023-05-07T01:37:32;27;27;
47741;PMS5003;33504;52.066;6.096;2023-05-07T01:39:59;28;27;
47741;PMS5003;33504;52.066;6.096;2023-05-07T01:42:28;27;26;
47741;PMS5003;33504;52.066;6.096;2023-05-07T01:44:56;26;26;
47741;PMS5003;33504;52.066;6.096;2023-05-07T01:47:22;26;26;
47741;PMS5003;33504;52.066;6.096;2023-05-07T01:49:50;23;23;
47741;PMS5003;33504;52.066;6.096;2023-05-07T01:52:18;28;27;
47741;PMS5003;33504;52.066;6.096;2023-05-07T01:54:45;25;25;
47741;PMS5003;33504;52.066;6.096;2023-05-07T01:57:12;25;25;
47741;PMS5003;33504;52.066;6.096;2023-05-07T01:59:39;24;24;
47741;PMS5003;33504;52.066;6.096;2023-05-07T02:02:06;25;25;
47741;PMS5003;33504;52.066;6.096;2023-05-07T02:04:33;26;24;
47741;PMS5003;33504;52.066;6.096;2023-05-07T02:06:59;24;24;
47741;PMS5003;33504;52.066;6.096;2023-05-07T02:09:26;27;27;
47741;PMS5003;33504;52.066;6.096;2023-05-07T02:11:53;26;26;
47741;PMS5003;33504;52.066;6.096;2023-05-07T02:14:19;26;25;
47741;PMS5003;33504;52.066;6.096;2023-05-07T02:16:46;26;25;
47741;PMS5003;33504;52.066;6.096;2023-05-07T02:19:14;24;24;
47741;PMS5003;33504;52.066;6.096;2023-05-07T02:21:41;33;32;
47741;PMS5003;33504;52.066;6.096;2023-05-07T02:24:08;31;31;
47741;PMS5003;33504;52.066;6.096;2023-05-07T02:26:36;27;27;
47741;PMS5003;33504;52.066;6.096;2023-05-07T02:29:03;31;31;
47741;PMS5003;33504;52.066;6.096;2023-05-07T02:31:29;29;29;
47741;PMS5003;33504;52.066;6.096;2023-05-07T02:33:56;34;32;
47741;PMS5003;33504;52.066;6.096;2023-05-07T02:36:23;23;22;
47741;PMS5003;33504;52.066;6.096;2023-05-07T02:38:50;22;22;
47741;PMS5003;33504;52.066;6.096;2023-05-07T02:41:17;27;26;
47741;PMS5003;33504;52.066;6.096;2023-05-07T02:43:44;26;25;
47741;PMS5003;33504;52.066;6.096;2023-05-07T02:46:12;24;24;
47741;PMS5003;33504;52.066;6.096;2023-05-07T02:48:38;25;25;
47741;PMS5003;33504;52.066;6.096;2023-05-07T02:51:05;26;26;
47741;PMS5003;33504;52.066;6.096;2023-05-07T02:53:32;26;26;
47741;PMS5003;33504;52.066;6.096;2023-05-07T02:56:00;29;28;
47741;PMS5003;33504;52.066;6.096;2023-05-07T02:58:27;31;31;
47741;PMS5003;33504;52.066;6.096;2023-05-07T03:00:54;32;31;
47741;PMS5003;33504;52.066;6.096;2023-05-07T03:03:21;30;28;
47741;PMS5003;33504;52.066;6.096;2023-05-07T03:05:48;37;35;
47741;PMS5003;33504;52.066;6.096;2023-05-07T03:08:15;32;31;
47741;PMS5003;33504;52.066;6.096;2023-05-07T03:10:42;36;34;
47741;PMS5003;33504;52.066;6.096;2023-05-07T03:13:09;32;32;
47741;PMS5003;33504;52.066;6.096;2023-05-07T03:15:36;34;34;
47741;PMS5003;33504;52.066;6.096;2023-05-07T03:18:04;30;30;
47741;PMS5003;33504;52.066;6.096;2023-05-07T03:20:30;29;28;
47741;PMS5003;33504;52.066;6.096;2023-05-07T03:22:58;32;31;
47741;PMS5003;33504;52.066;6.096;2023-05-07T03:25:25;29;29;
47741;PMS5003;33504;52.066;6.096;2023-05-07T03:27:51;31;30;
47741;PMS5003;33504;52.066;6.096;2023-05-07T03:30:18;29;29;
47741;PMS5003;33504;52.066;6.096;2023-05-07T03:32:45;29;28;
47741;PMS5003;33504;52.066;6.096;2023-05-07T03:35:12;36;34;
47741;PMS5003;33504;52.066;6.096;2023-05-07T03:37:40;34;34;
47741;PMS5003;33504;52.066;6.096;2023-05-07T03:40:07;36;35;
47741;PMS5003;33504;52.066;6.096;2023-05-07T03:42:35;37;37;
47741;PMS5003;33504;52.066;6.096;2023-05-07T03:45:02;40;38;
47741;PMS5003;33504;52.066;6.096;2023-05-07T03:47:30;37;36;
47741;PMS5003;33504;52.066;6.096;2023-05-07T03:49:57;38;37;
47741;PMS5003;33504;52.066;6.096;2023-05-07T03:52:24;43;42;
47741;PMS5003;33504;52.066;6.096;2023-05-07T03:54:52;37;37;
47741;PMS5003;33504;52.066;6.096;2023-05-07T03:57:19;33;32;
47741;PMS5003;33504;52.066;6.096;2023-05-07T03:59:46;39;38;
47741;PMS5003;33504;52.066;6.096;2023-05-07T04:02:13;35;34;
47741;PMS5003;33504;52.066;6.096;2023-05-07T04:04:40;42;40;
47741;PMS5003;33504;52.066;6.096;2023-05-07T04:07:07;39;39;
47741;PMS5003;33504;52.066;6.096;2023-05-07T04:09:34;42;41;
47741;PMS5003;33504;52.066;6.096;2023-05-07T04:12:02;39;38;
47741;PMS5003;33504;52.066;6.096;2023-05-07T04:14:29;45;45;
47741;PMS5003;33504;52.066;6.096;2023-05-07T04:16:56;43;43;
47741;PMS5003;33504;52.066;6.096;2023-05-07T04:19:23;41;39;
47741;PMS5003;33504;52.066;6.096;2023-05-07T04:21:50;39;38;
47741;PMS5003;33504;52.066;6.096;2023-05-07T04:24:17;43;40;
47741;PMS5003;33504;52.066;6.096;2023-05-07T04:26:44;41;40;
47741;PMS5003;33504;52.066;6.096;2023-05-07T04:29:11;41;41;
47741;PMS5003;33504;52.066;6.096;2023-05-07T04:31:38;44;43;
47741;PMS5003;33504;52.066;6.096;2023-05-07T04:34:05;38;36;
47741;PMS5003;33504;52.066;6.096;2023-05-07T04:36:32;39;38;
47741;PMS5003;33504;52.066;6.096;2023-05-07T04:38:59;46;45;
47741;PMS5003;33504;52.066;6.096;2023-05-07T04:41:26;36;36;
47741;PMS5003;33504;52.066;6.096;2023-05-07T04:43:54;39;38;
47741;PMS5003;33504;52.066;6.096;2023-05-07T04:46:21;42;42;
47741;PMS5003;33504;52.066;6.096;2023-05-07T04:48:47;45;44;
47741;PMS5003;33504;52.066;6.096;2023-05-07T04:51:15;40;40;
47741;PMS5003;33504;52.066;6.096;2023-05-07T04:53:42;47;45;
47741;PMS5003;33504;52.066;6.096;2023-05-07T04:56:09;49;48;
47741;PMS5003;33504;52.066;6.096;2023-05-07T04:58:36;45;44;
47741;PMS5003;33504;52.066;6.096;2023-05-07T05:01:03;46;45;
47741;PMS5003;33504;52.066;6.096;2023-05-07T05:03:31;42;39;
47741;PMS5003;33504;52.066;6.096;2023-05-07T05:05:58;46;44;
47741;PMS5003;33504;52.066;6.096;2023-05-07T05:08:25;40;40;
47741;PMS5003;33504;52.066;6.096;2023-05-07T05:10:53;45;44;
47741;PMS5003;33504;52.066;6.096;2023-05-07T05:13:19;44;44;
47741;PMS5003;33504;52.066;6.096;2023-05-07T05:15:46;46;45;
47741;PMS5003;33504;52.066;6.096;2023-05-07T05:18:13;45;44;
47741;PMS5003;33504;52.066;6.096;2023-05-07T05:20:40;49;48;
47741;PMS5003;33504;52.066;6.096;2023-05-07T05:23:07;47;46;
47741;PMS5003;33504;52.066;6.096;2023-05-07T05:25:34;52;52;
47741;PMS5003;33504;52.066;6.096;2023-05-07T05:28:01;44;42;
47741;PMS5003;33504;52.066;6.096;2023-05-07T05:30:28;47;44;
47741;PMS5003;33504;52.066;6.096;2023-05-07T05:32:55;44;43;
47741;PMS5003;33504;52.066;6.096;2023-05-07T05:35:22;51;50;
47741;PMS5003;33504;52.066;6.096;2023-05-07T05:37:49;49;48;
47741;PMS5003;33504;52.066;6.096;2023-05-07T05:40:16;46;43;
47741;PMS5003;33504;52.066;6.096;2023-05-07T05:42:44;53;52;
47741;PMS5003;33504;52.066;6.096;2023-05-07T05:45:11;50;49;
47741;PMS5003;33504;52.066;6.096;2023-05-07T05:47:38;48;45;
47741;PMS5003;33504;52.066;6.096;2023-05-07T05:50:05;50;48;
47741;PMS5003;33504;52.066;6.096;2023-05-07T05:52:33;49;46;
47741;PMS5003;33504;52.066;6.096;2023-05-07T05:55:00;49;49;
47741;PMS5003;33504;52.066;6.096;2023-05-07T05:57:27;52;51;
47741;PMS5003;33504;52.066;6.096;2023-05-07T05:59:54;48;47;
47741;PMS5003;33504;52.066;6.096;2023-05-07T06:02:21;61;57;
47741;PMS5003;33504;52.066;6.096;2023-05-07T06:04:49;47;46;
47741;PMS5003;33504;52.066;6.096;2023-05-07T06:07:15;51;47;
47741;PMS5003;33504;52.066;6.096;2023-05-07T06:09:43;48;47;
47741;PMS5003;33504;52.066;6.096;2023-05-07T06:12:10;54;53;
47741;PMS5003;33504;52.066;6.096;2023-05-07T06:14:37;55;52;
47741;PMS5003;33504;52.066;6.096;2023-05-07T06:17:04;46;45;
47741;PMS5003;33504;52.066;6.096;2023-05-07T06:19:31;47;46;
47741;PMS5003;33504;52.066;6.096;2023-05-07T06:21:59;50;47;
47741;PMS5003;33504;52.066;6.096;2023-05-07T06:24:26;49;49;
47741;PMS5003;33504;52.066;6.096;2023-05-07T06:26:53;53;52;
47741;PMS5003;33504;52.066;6.096;2023-05-07T06:29:20;49;47;
47741;PMS5003;33504;52.066;6.096;2023-05-07T06:31:47;48;46;
47741;PMS5003;33504;52.066;6.096;2023-05-07T06:34:14;50;49;
47741;PMS5003;33504;52.066;6.096;2023-05-07T06:36:41;47;45;
47741;PMS5003;33504;52.066;6.096;2023-05-07T06:39:08;46;46;
47741;PMS5003;33504;52.066;6.096;2023-05-07T06:41:35;47;44;
47741;PMS5003;33504;52.066;6.096;2023-05-07T06:44:02;43;42;
47741;PMS5003;33504;52.066;6.096;2023-05-07T06:46:29;46;45;
47741;PMS5003;33504;52.066;6.096;2023-05-07T06:48:56;48;48;
47741;PMS5003;33504;52.066;6.096;2023-05-07T06:51:23;47;46;
47741;PMS5003;33504;52.066;6.096;2023-05-07T06:53:49;39;38;
47741;PMS5003;33504;52.066;6.096;2023-05-07T06:56:16;45;45;
47741;PMS5003;33504;52.066;6.096;2023-05-07T06:58:43;46;46;
47741;PMS5003;33504;52.066;6.096;2023-05-07T07:01:10;45;43;
47741;PMS5003;33504;52.066;6.096;2023-05-07T07:03:37;42;42;
47741;PMS5003;33504;52.066;6.096;2023-05-07T07:06:04;48;45;
47741;PMS5003;33504;52.066;6.096;2023-05-07T07:08:31;42;41;
47741;PMS5003;33504;52.066;6.096;2023-05-07T07:10:58;51;46;
47741;PMS5003;33504;52.066;6.096;2023-05-07T07:13:25;46;46;
47741;PMS5003;33504;52.066;6.096;2023-05-07T07:15:52;41;40;
47741;PMS5003;33504;52.066;6.096;2023-05-07T07:18:20;44;42;
47741;PMS5003;33504;52.066;6.096;2023-05-07T07:20:47;49;46;
47741;PMS5003;33504;52.066;6.096;2023-05-07T07:23:14;41;38;
47741;PMS5003;33504;52.066;6.096;2023-05-07T07:25:40;40;38;
47741;PMS5003;33504;52.066;6.096;2023-05-07T07:28:08;44;43;
47741;PMS5003;33504;52.066;6.096;2023-05-07T07:30:35;44;42;
47741;PMS5003;33504;52.066;6.096;2023-05-07T07:33:02;42;41;
47741;PMS5003;33504;52.066;6.096;2023-05-07T07:35:30;45;43;
47741;PMS5003;33504;52.066;6.096;2023-05-07T07:37:57;47;46;
47741;PMS5003;33504;52.066;6.096;2023-05-07T07:40:24;44;42;
47741;PMS5003;33504;52.066;6.096;2023-05-07T07:42:51;44;43;
47741;PMS5003;33504;52.066;6.096;2023-05-07T07:45:19;45;44;
47741;PMS5003;33504;52.066;6.096;2023-05-07T07:47:46;47;46;
47741;PMS5003;33504;52.066;6.096;2023-05-07T07:50:13;44;43;
47741;PMS5003;33504;52.066;6.096;2023-05-07T07:52:40;47;47;
47741;PMS5003;33504;52.066;6.096;2023-05-07T07:55:08;54;53;
47741;PMS5003;33504;52.066;6.096;2023-05-07T07:57:35;48;46;
47741;PMS5003;33504;52.066;6.096;2023-05-07T08:00:02;48;46;
47741;PMS5003;33504;52.066;6.096;2023-05-07T08:02:29;47;46;
47741;PMS5003;33504;52.066;6.096;2023-05-07T08:04:56;45;43;
47741;PMS5003;33504;52.066;6.096;2023-05-07T08:07:23;46;43;
47741;PMS5003;33504;52.066;6.096;2023-05-07T08:09:50;48;48;
47741;PMS5003;33504;52.066;6.096;2023-05-07T08:12:18;53;49;
47741;PMS5003;33504;52.066;6.096;2023-05-07T08:14:45;42;37;
47741;PMS5003;33504;52.066;6.096;2023-05-07T08:17:12;45;44;
47741;PMS5003;33504;52.066;6.096;2023-05-07T08:19:38;50;48;
47741;PMS5003;33504;52.066;6.096;2023-05-07T08:22:06;38;38;
47741;PMS5003;33504;52.066;6.096;2023-05-07T08:24:33;47;44;
47741;PMS5003;33504;52.066;6.096;2023-05-07T08:27:00;50;49;
47741;PMS5003;33504;52.066;6.096;2023-05-07T08:29:26;47;45;
47741;PMS5003;33504;52.066;6.096;2023-05-07T08:31:53;45;44;
47741;PMS5003;33504;52.066;6.096;2023-05-07T08:34:21;53;49;
47741;PMS5003;33504;52.066;6.096;2023-05-07T08:36:48;46;44;
47741;PMS5003;33504;52.066;6.096;2023-05-07T08:39:15;38;37;
47741;PMS5003;33504;52.066;6.096;2023-05-07T08:41:42;45;44;
47741;PMS5003;33504;52.066;6.096;2023-05-07T08:44:11;42;41;
47741;PMS5003;33504;52.066;6.096;2023-05-07T08:46:39;47;44;
47741;PMS5003;33504;52.066;6.096;2023-05-07T08:49:07;44;42;
47741;PMS5003;33504;52.066;6.096;2023-05-07T08:51:35;45;44;
47741;PMS5003;33504;52.066;6.096;2023-05-07T08:54:02;42;41;
47741;PMS5003;33504;52.066;6.096;2023-05-07T08:56:29;41;40;
47741;PMS5003;33504;52.066;6.096;2023-05-07T08:58:57;43;41;
47741;PMS5003;33504;52.066;6.096;2023-05-07T09:01:24;42;40;
47741;PMS5003;33504;52.066;6.096;2023-05-07T09:03:51;42;41;
47741;PMS5003;33504;52.066;6.096;2023-05-07T09:06:19;45;42;
47741;PMS5003;33504;52.066;6.096;2023-05-07T09:08:49;39;37;
47741;PMS5003;33504;52.066;6.096;2023-05-07T09:11:16;42;41;
47741;PMS5003;33504;52.066;6.096;2023-05-07T09:13:45;45;44;
47741;PMS5003;33504;52.066;6.096;2023-05-07T09:16:12;44;43;
47741;PMS5003;33504;52.066;6.096;2023-05-07T09:18:40;43;43;
47741;PMS5003;33504;52.066;6.096;2023-05-07T09:21:09;43;42;
47741;PMS5003;33504;52.066;6.096;2023-05-07T09:23:37;46;45;
47741;PMS5003;33504;52.066;6.096;2023-05-07T09:26:05;42;40;
47741;PMS5003;33504;52.066;6.096;2023-05-07T09:28:33;46;44;
47741;PMS5003;33504;52.066;6.096;2023-05-07T09:31:00;41;39;
47741;PMS5003;33504;52.066;6.096;2023-05-07T09:33:27;40;39;
47741;PMS5003;33504;52.066;6.096;2023-05-07T09:35:55;41;40;
47741;PMS5003;33504;52.066;6.096;2023-05-07T09:38:21;41;38;
47741;PMS5003;33504;52.066;6.096;2023-05-07T09:40:52;34;33;
47741;PMS5003;33504;52.066;6.096;2023-05-07T09:43:31;41;40;
47741;PMS5003;33504;52.066;6.096;2023-05-07T09:45:58;40;39;
47741;PMS5003;33504;52.066;6.096;2023-05-07T09:48:29;36;36;
47741;PMS5003;33504;52.066;6.096;2023-05-07T09:50:57;41;40;
47741;PMS5003;33504;52.066;6.096;2023-05-07T09:53:29;41;39;
47741;PMS5003;33504;52.066;6.096;2023-05-07T09:55:57;41;40;
47741;PMS5003;33504;52.066;6.096;2023-05-07T09:58:25;43;42;
47741;PMS5003;33504;52.066;6.096;2023-05-07T10:00:53;34;34;
47741;PMS5003;33504;52.066;6.096;2023-05-07T10:03:22;43;42;
47741;PMS5003;33504;52.066;6.096;2023-05-07T10:05:53;38;33;
47741;PMS5003;33504;52.066;6.096;2023-05-07T10:08:21;35;35;
47741;PMS5003;33504;52.066;6.096;2023-05-07T10:10:49;44;43;
47741;PMS5003;33504;52.066;6.096;2023-05-07T10:13:16;38;36;
47741;PMS5003;33504;52.066;6.096;2023-05-07T10:15:45;36;34;
47741;PMS5003;33504;52.066;6.096;2023-05-07T10:18:12;43;40;
47741;PMS5003;33504;52.066;6.096;2023-05-07T10:20:40;38;37;
47741;PMS5003;33504;52.066;6.096;2023-05-07T10:23:09;40;38;
47741;PMS5003;33504;52.066;6.096;2023-05-07T10:25:41;35;35;
47741;PMS5003;33504;52.066;6.096;2023-05-07T10:28:08;33;33;
47741;PMS5003;33504;52.066;6.096;2023-05-07T10:30:42;38;35;
47741;PMS5003;33504;52.066;6.096;2023-05-07T10:33:18;40;39;
47741;PMS5003;33504;52.066;6.096;2023-05-07T10:35:50;38;38;
47741;PMS5003;33504;52.066;6.096;2023-05-07T10:38:21;39;38;
47741;PMS5003;33504;52.066;6.096;2023-05-07T10:40:48;40;40;
47741;PMS5003;33504;52.066;6.096;2023-05-07T10:43:17;37;37;
47741;PMS5003;33504;52.066;6.096;2023-05-07T10:45:45;36;36;
47741;PMS5003;33504;52.066;6.096;2023-05-07T10:48:46;37;36;
47741;PMS5003;33504;52.066;6.096;2023-05-07T10:51:33;33;32;
47741;PMS5003;33504;52.066;6.096;2023-05-07T10:54:33;37;37;
47741;PMS5003;33504;52.066;6.096;2023-05-07T10:57:04;39;38;
47741;PMS5003;33504;52.066;6.096;2023-05-07T11:00:00;36;35;
47741;PMS5003;33504;52.066;6.096;2023-05-07T11:02:46;36;35;
47741;PMS5003;33504;52.066;6.096;2023-05-07T11:05:32;37;36;
47741;PMS5003;33504;52.066;6.096;2023-05-07T11:08:00;32;31;
47741;PMS5003;33504;52.066;6.096;2023-05-07T11:10:47;33;33;
47741;PMS5003;33504;52.066;6.096;2023-05-07T11:13:15;34;31;
47741;PMS5003;33504;52.066;6.096;2023-05-07T11:15:43;36;33;
47741;PMS5003;33504;52.066;6.096;2023-05-07T11:18:12;35;33;
47741;PMS5003;33504;52.066;6.096;2023-05-07T11:20:45;31;30;
47741;PMS5003;33504;52.066;6.096;2023-05-07T11:23:55;31;30;
47741;PMS5003;33504;52.066;6.096;2023-05-07T11:26:23;33;32;
47741;PMS5003;33504;52.066;6.096;2023-05-07T11:28:50;29;29;
47741;PMS5003;33504;52.066;6.096;2023-05-07T11:31:21;37;36;
47741;PMS5003;33504;52.066;6.096;2023-05-07T11:33:49;38;36;
47741;PMS5003;33504;52.066;6.096;2023-05-07T11:36:16;34;34;
47741;PMS5003;33504;52.066;6.096;2023-05-07T11:38:45;27;27;
47741;PMS5003;33504;52.066;6.096;2023-05-07T11:41:11;30;29;
47741;PMS5003;33504;52.066;6.096;2023-05-07T11:43:39;26;26;
47741;PMS5003;33504;52.066;6.096;2023-05-07T11:46:20;29;28;
47741;PMS5003;33504;52.066;6.096;2023-05-07T11:48:47;28;27;
47741;PMS5003;33504;52.066;6.096;2023-05-07T11:51:18;31;30;
47741;PMS5003;33504;52.066;6.096;2023-05-07T11:53:45;27;27;
47741;PMS5003;33504;52.066;6.096;2023-05-07T11:56:13;27;26;
47741;PMS5003;33504;52.066;6.096;2023-05-07T11:58:42;30;30;
47741;PMS5003;33504;52.066;6.096;2023-05-07T12:01:11;26;25;
47741;PMS5003;33504;52.066;6.096;2023-05-07T12:03:40;25;25;
47741;PMS5003;33504;52.066;6.096;2023-05-07T12:06:07;28;27;
47741;PMS5003;33504;52.066;6.096;2023-05-07T12:08:36;27;25;
47741;PMS5003;33504;52.066;6.096;2023-05-07T12:11:04;21;21;
47741;PMS5003;33504;52.066;6.096;2023-05-07T12:13:33;24;23;
47741;PMS5003;33504;52.066;6.096;2023-05-07T12:16:01;23;23;
47741;PMS5003;33504;52.066;6.096;2023-05-07T12:18:28;25;24;
47741;PMS5003;33504;52.066;6.096;2023-05-07T12:20:55;27;26;
47741;PMS5003;33504;52.066;6.096;2023-05-07T12:23:22;25;25;
47741;PMS5003;33504;52.066;6.096;2023-05-07T12:25:50;25;24;
47741;PMS5003;33504;52.066;6.096;2023-05-07T12:28:17;21;20;
47741;PMS5003;33504;52.066;6.096;2023-05-07T12:30:46;28;28;
47741;PMS5003;33504;52.066;6.096;2023-05-07T12:33:15;25;24;
47741;PMS5003;33504;52.066;6.096;2023-05-07T12:35:43;30;30;
47741;PMS5003;33504;52.066;6.096;2023-05-07T12:38:11;27;26;
47741;PMS5003;33504;52.066;6.096;2023-05-07T12:40:40;31;29;
47741;PMS5003;33504;52.066;6.096;2023-05-07T12:43:09;21;20;
47741;PMS5003;33504;52.066;6.096;2023-05-07T12:45:42;22;22;
47741;PMS5003;33504;52.066;6.096;2023-05-07T12:48:10;22;20;
47741;PMS5003;33504;52.066;6.096;2023-05-07T12:50:37;18;18;
47741;PMS5003;33504;52.066;6.096;2023-05-07T12:53:05;23;23;
47741;PMS5003;33504;52.066;6.096;2023-05-07T12:55:39;21;20;
47741;PMS5003;33504;52.066;6.096;2023-05-07T12:58:07;24;24;
47741;PMS5003;33504;52.066;6.096;2023-05-07T13:00:40;25;24;
47741;PMS5003;33504;52.066;6.096;2023-05-07T13:03:07;19;19;
47741;PMS5003;33504;52.066;6.096;2023-05-07T13:05:34;26;26;
47741;PMS5003;33504;52.066;6.096;2023-05-07T13:08:01;25;24;
47741;PMS5003;33504;52.066;6.096;2023-05-07T13:10:29;21;20;
47741;PMS5003;33504;52.066;6.096;2023-05-07T13:12:55;20;20;
47741;PMS5003;33504;52.066;6.096;2023-05-07T13:15:22;21;19;
47741;PMS5003;33504;52.066;6.096;2023-05-07T13:17:49;21;21;
47741;PMS5003;33504;52.066;6.096;2023-05-07T13:20:17;22;20;
47741;PMS5003;33504;52.066;6.096;2023-05-07T13:22:44;22;22;
47741;PMS5003;33504;52.066;6.096;2023-05-07T13:25:11;17;16;
47741;PMS5003;33504;52.066;6.096;2023-05-07T13:27:38;23;22;
47741;PMS5003;33504;52.066;6.096;2023-05-07T13:30:06;19;18;
47741;PMS5003;33504;52.066;6.096;2023-05-07T13:32:34;20;20;
47741;PMS5003;33504;52.066;6.096;2023-05-07T13:35:01;23;21;
47741;PMS5003;33504;52.066;6.096;2023-05-07T13:37:28;24;23;
47741;PMS5003;33504;52.066;6.096;2023-05-07T13:39:56;17;17;
47741;PMS5003;33504;52.066;6.096;2023-05-07T13:42:23;19;19;
47741;PMS5003;33504;52.066;6.096;2023-05-07T13:44:50;26;23;
47741;PMS5003;33504;52.066;6.096;2023-05-07T13:47:17;24;23;
47741;PMS5003;33504;52.066;6.096;2023-05-07T13:49:44;21;21;
47741;PMS5003;33504;52.066;6.096;2023-05-07T13:52:11;30;29;
47741;PMS5003;33504;52.066;6.096;2023-05-07T13:54:38;31;30;
47741;PMS5003;33504;52.066;6.096;2023-05-07T13:57:05;27;27;
47741;PMS5003;33504;52.066;6.096;2023-05-07T13:59:33;23;23;
47741;PMS5003;33504;52.066;6.096;2023-05-07T14:02:00;31;28;
47741;PMS5003;33504;52.066;6.096;2023-05-07T14:04:27;24;23;
47741;PMS5003;33504;52.066;6.096;2023-05-07T14:06:54;26;25;
47741;PMS5003;33504;52.066;6.096;2023-05-07T14:09:21;23;22;
47741;PMS5003;33504;52.066;6.096;2023-05-07T14:11:48;26;25;
47741;PMS5003;33504;52.066;6.096;2023-05-07T14:14:15;30;28;
47741;PMS5003;33504;52.066;6.096;2023-05-07T14:16:42;33;32;
47741;PMS5003;33504;52.066;6.096;2023-05-07T14:19:09;35;34;
47741;PMS5003;33504;52.066;6.096;2023-05-07T14:21:36;30;30;
47741;PMS5003;33504;52.066;6.096;2023-05-07T14:24:05;27;26;
47741;PMS5003;33504;52.066;6.096;2023-05-07T14:26:32;23;23;
47741;PMS5003;33504;52.066;6.096;2023-05-07T14:28:59;28;27;
47741;PMS5003;33504;52.066;6.096;2023-05-07T14:31:27;27;26;
47741;PMS5003;33504;52.066;6.096;2023-05-07T14:33:54;35;34;
47741;PMS5003;33504;52.066;6.096;2023-05-07T14:36:22;37;36;
47741;PMS5003;33504;52.066;6.096;2023-05-07T14:38:48;36;35;
47741;PMS5003;33504;52.066;6.096;2023-05-07T14:41:15;29;29;
47741;PMS5003;33504;52.066;6.096;2023-05-07T14:43:42;34;32;
47741;PMS5003;33504;52.066;6.096;2023-05-07T14:46:10;32;31;
47741;PMS5003;33504;52.066;6.096;2023-05-07T14:48:36;36;34;
47741;PMS5003;33504;52.066;6.096;2023-05-07T14:51:03;40;40;
47741;PMS5003;33504;52.066;6.096;2023-05-07T14:53:30;34;34;
47741;PMS5003;33504;52.066;6.096;2023-05-07T14:55:58;41;39;
47741;PMS5003;33504;52.066;6.096;2023-05-07T14:58:25;48;47;
47741;PMS5003;33504;52.066;6.096;2023-05-07T15:00:52;48;48;
47741;PMS5003;33504;52.066;6.096;2023-05-07T15:03:19;50;47;
47741;PMS5003;33504;52.066;6.096;2023-05-07T15:05:46;45;45;
47741;PMS5003;33504;52.066;6.096;2023-05-07T15:08:13;39;38;
47741;PMS5003;33504;52.066;6.096;2023-05-07T15:10:41;47;45;
47741;PMS5003;33504;52.066;6.096;2023-05-07T15:13:08;43;42;
47741;PMS5003;33504;52.066;6.096;2023-05-07T15:15:35;40;40;
47741;PMS5003;33504;52.066;6.096;2023-05-07T15:18:03;38;38;
47741;PMS5003;33504;52.066;6.096;2023-05-07T15:20:30;50;50;
47741;PMS5003;33504;52.066;6.096;2023-05-07T15:22:57;25;25;
47741;PMS5003;33504;52.066;6.096;2023-05-07T15:25:24;24;24;
47741;PMS5003;33504;52.066;6.096;2023-05-07T15:27:51;46;46;
47741;PMS5003;33504;52.066;6.096;2023-05-07T15:30:18;21;21;
47741;PMS5003;33504;52.066;6.096;2023-05-07T15:32:45;29;29;
47741;PMS5003;33504;52.066;6.096;2023-05-07T15:35:12;31;30;
47741;PMS5003;33504;52.066;6.096;2023-05-07T15:37:39;34;34;
47741;PMS5003;33504;52.066;6.096;2023-05-07T15:40:06;25;25;
47741;PMS5003;33504;52.066;6.096;2023-05-07T15:42:34;22;22;
47741;PMS5003;33504;52.066;6.096;2023-05-07T15:45:01;24;24;
47741;PMS5003;33504;52.066;6.096;2023-05-07T15:47:29;20;20;
47741;PMS5003;33504;52.066;6.096;2023-05-07T15:50:00;40;39;
47741;PMS5003;33504;52.066;6.096;2023-05-07T15:52:26;29;28;
47741;PMS5003;33504;52.066;6.096;2023-05-07T15:54:54;36;33;
47741;PMS5003;33504;52.066;6.096;2023-05-07T15:57:21;27;25;
47741;PMS5003;33504;52.066;6.096;2023-05-07T15:59:48;31;30;
47741;PMS5003;33504;52.066;6.096;2023-05-07T16:02:15;31;30;
47741;PMS5003;33504;52.066;6.096;2023-05-07T16:04:42;34;30;
47741;PMS5003;33504;52.066;6.096;2023-05-07T16:07:10;36;35;
47741;PMS5003;33504;52.066;6.096;2023-05-07T16:09:36;32;32;
47741;PMS5003;33504;52.066;6.096;2023-05-07T16:12:04;30;30;
47741;PMS5003;33504;52.066;6.096;2023-05-07T16:14:31;41;39;
47741;PMS5003;33504;52.066;6.096;2023-05-07T16:16:58;40;39;
47741;PMS5003;33504;52.066;6.096;2023-05-07T16:19:25;37;36;
47741;PMS5003;33504;52.066;6.096;2023-05-07T16:21:53;43;43;
47741;PMS5003;33504;52.066;6.096;2023-05-07T16:24:20;45;43;